Flight Track Log - Related Links

Times and Time Zones

All times are in EDT time to prevent confusion due to time zone crossing. See the N488VC flight status page for this flight to view local times or setup timezone preferences in your user account.

Time Position Orientation Groundspeed Altitude Reporting Facility
EDT Latitude Longitude Course Direction KTS MPH feet Rate Location/Type
Fri 07:13:16 PM 41.0333 -73.7167 288° West 197 227 2,200  Level New York TRACON
Fri 07:14:16 PM 41.0500 -73.7833 288° West 241 277 4,500 2,900 Climbing New York TRACON
Fri 07:15:16 PM 41.1000 -73.8500 315° West 271 312 8,000 3,150 Climbing New York TRACON
Fri 07:16:16 PM 41.1500 -73.7833 45° Northeast 266 306 10,800 2,400 Climbing New York TRACON
Fri 07:17:16 PM 41.2000 -73.6833 56° Northeast 321 369 12,800 1,212 Climbing New York TRACON
Fri 07:19:44 PM 41.2897 -73.4042 67° East 361 415 15,000 635 Climbing Boston Center
Fri 07:20:44 PM 41.3344 -73.2833 64° Northeast 356 410 15,000  Level Boston Center
Fri 07:21:44 PM 41.3811 -73.1483 65° Northeast 361 415 15,000  Level Boston Center
Fri 07:22:44 PM 41.4275 -73.0436 59° Northeast 361 415 15,000  Level Boston Center
Fri 07:23:44 PM 41.4844 -72.9139 60° Northeast 361 415 15,000  Level Boston Center
Fri 07:24:44 PM 41.5286 -72.8089 61° Northeast 361 415 15,000  Level Boston Center
Fri 07:25:44 PM 41.5706 -72.7119 60° Northeast 361 415 15,000  Level Boston Center
Fri 07:26:08 PM 41.6042 -72.6289 62° Northeast 370 426 15,000 -200 Level Boston Center
Fri 07:26:44 PM 41.6356 -72.5733 53° Northeast 361 415 14,800 -1,625 Descending Boston Center
Fri 07:27:44 PM 41.7147 -72.4678 45° Northeast 361 415 12,400 -1,966 Descending Boston Center
Fri 07:28:40 PM 41.7878 -72.3900 38° Northeast 343 395 11,000 -718 Descending Boston Center
Fri 07:29:41 PM 41.8583 -72.3064 41° Northeast 347 399 11,000 -645 Level Boston Center
Fri 07:30:41 PM 41.9231 -72.2364 39° Northeast 276 318 9,700 -1,321 Descending Boston Center
Fri 07:31:30 PM 41.9644 -72.1889 40° Northeast 255 293 8,600 -1,512 Descending Boston Center
Fri 07:32:44 PM 42.0247 -72.1214 40° Northeast 255 293 6,600 -1,701 Descending Boston Center
Fri 07:33:44 PM 42.0850 -72.0483 42° Northeast 255 293 4,800 -1,444 Descending Boston Center
Fri 07:34:32 PM 42.1308 -72.0006 38° Northeast 250 288 4,000 -500 Descending Boston Center
Fri 07:35:20 PM 42.1681 -71.9611 38° Northeast 237 273 4,000  Level Boston Center
Fri 07:35:44 PM 42.1908 -71.9358 39° Northeast 244 281 4,000 71 Level Boston Center
Fri 07:36:44 PM 42.2428 -71.8736 42° Northeast 244 281 4,100 50 Climbing Boston Center
Fri 07:37:44 PM 42.2903 -71.8228 38° Northeast 244 281 4,100 -45 Level Boston Center
Fri 07:38:56 PM 42.3483 -71.7603 38° Northeast 244 281 4,000 -45 Descending Boston Center
Fri 07:39:56 PM 42.4022 -71.6894 44° Northeast 239 275 4,000 -450 Level Boston Center
Fri 07:40:56 PM 42.4517 -71.6156 48° Northeast 234 269 3,100 -500 Descending Boston Center
Fri 07:41:56 PM 42.4761 -71.5647 57° Northeast 229 264 3,000  Descending Boston Center
Fri 07:42:17 PM 42.4833 -71.5167 78° East 222 255 3,100 -593 Climbing KA90
Fri 07:43:17 PM 42.4833 -71.4333 90° East 197 227 2,200 -905 Descending KA90
Fri 07:44:23 PM 42.4833 -71.3667 90° East 164 189 1,200 -909 Descending KA90

Login

Don't have an account? Register now (free) for customized features, flight alerts, and more!